createdAt,value
2022-08-03T00:00:20.158Z,45194.41
2022-08-03T00:02:46.625Z,45202.38
2022-08-03T00:05:13.056Z,45210.38
2022-08-03T00:07:41.025Z,45202.38
2022-08-03T00:10:07.886Z,45192.41
2022-08-03T00:12:36.266Z,45200.41
2022-08-03T00:15:03.273Z,45198.41
2022-08-03T00:17:52.676Z,45198.41
2022-08-03T00:20:24.183Z,45206.38
2022-08-03T00:22:50.677Z,45202.38
2022-08-03T00:25:18.095Z,45192.41
2022-08-03T00:27:44.783Z,45198.41
2022-08-03T00:30:11.671Z,45206.38
2022-08-03T00:32:44.223Z,45204.38
2022-08-03T00:35:18.053Z,45206.38
2022-08-03T00:37:59.044Z,45208.38
2022-08-03T00:40:26.321Z,45198.41
2022-08-03T00:42:55.028Z,45214.38
2022-08-03T00:45:27.694Z,45214.38
2022-08-03T00:47:54.703Z,45220.38
2022-08-03T00:50:23.088Z,45212.38
2022-08-03T00:52:51.597Z,45210.38
2022-08-03T00:55:18.286Z,45214.38
2022-08-03T00:57:46.174Z,45202.38
2022-08-03T01:00:15.823Z,45216.38
2022-08-03T01:02:42.440Z,45220.38
2022-08-03T01:05:10.616Z,45206.38
2022-08-03T01:08:05.747Z,45214.38
2022-08-03T01:10:48.407Z,45230.38
2022-08-03T01:14:03.667Z,45204.38
2022-08-03T01:16:37.048Z,45212.38
2022-08-03T01:19:41.337Z,45222.38
2022-08-03T01:22:26.645Z,45212.38
2022-08-03T01:25:05.262Z,45218.38
2022-08-03T01:28:01.759Z,45214.38
2022-08-03T01:30:31.810Z,45228.38
2022-08-03T01:33:12.309Z,45218.38
2022-08-03T01:35:43.552Z,45214.38
2022-08-03T01:38:32.139Z,45228.38
2022-08-03T01:41:05.676Z,45218.38
2022-08-03T01:44:26.515Z,45236.38
2022-08-03T01:46:20.613Z,45238.38
2022-08-03T01:48:49.072Z,45218.38
2022-08-03T01:51:18.306Z,45236.38
2022-08-03T01:53:45.433Z,45226.38
2022-08-03T01:56:13.887Z,45228.38
2022-08-03T01:58:42.090Z,45222.38
2022-08-03T02:01:10.152Z,45238.38
2022-08-03T02:03:59.478Z,45218.38
2022-08-03T02:06:59.627Z,45222.38
2022-08-03T02:09:15.300Z,45226.38
2022-08-03T02:11:43.785Z,45218.38
2022-08-03T02:14:11.156Z,45230.38
2022-08-03T02:16:37.603Z,45238.38
2022-08-03T02:19:06.473Z,45242.34
2022-08-03T02:21:55.924Z,45222.38
2022-08-03T02:24:23.801Z,45238.38
2022-08-03T02:26:53.133Z,45242.34
2022-08-03T02:29:39.964Z,45234.38
2022-08-03T02:32:13.226Z,45244.34
2022-08-03T02:34:42.104Z,45238.38
2022-08-03T02:37:10.768Z,45244.34
2022-08-03T02:39:39.713Z,45266.34
2022-08-03T02:42:10.474Z,45226.38
2022-08-03T02:44:41.492Z,45244.34
2022-08-03T02:47:10.805Z,45222.38
2022-08-03T02:49:50.114Z,45246.34
2022-08-03T02:52:21.359Z,45250.34
2022-08-03T02:54:51.065Z,45242.34
2022-08-03T02:57:19.922Z,45242.34
2022-08-03T02:59:47.620Z,45238.38
2022-08-03T03:02:16.706Z,45238.38
2022-08-03T03:04:58.094Z,45234.38
2022-08-03T03:07:35.325Z,45240.34
2022-08-03T03:10:21.848Z,45252.34
2022-08-03T03:12:51.317Z,45250.34
2022-08-03T03:15:18.827Z,45258.34
2022-08-03T03:17:46.420Z,45234.38
2022-08-03T03:20:15.090Z,45260.34
2022-08-03T03:22:56.409Z,45246.34
2022-08-03T03:25:24.263Z,45254.34
2022-08-03T03:27:51.178Z,45242.34
2022-08-03T03:30:17.684Z,45256.34
2022-08-03T03:32:44.270Z,45248.34
2022-08-03T03:35:11.640Z,45242.34
2022-08-03T03:37:38.366Z,45244.34
2022-08-03T03:40:05.446Z,45260.34
2022-08-03T03:42:32.049Z,45240.34
2022-08-03T03:44:59.472Z,45234.38
2022-08-03T03:47:32.411Z,45250.34
2022-08-03T03:49:59.972Z,45254.34
2022-08-03T03:52:26.437Z,45238.38
2022-08-03T03:54:56.348Z,45246.34
2022-08-03T03:57:26.048Z,45260.34
2022-08-03T03:59:53.038Z,45248.34
2022-08-03T04:02:19.498Z,45242.34
2022-08-03T04:05:04.383Z,45262.34
2022-08-03T04:08:04.772Z,45250.34
2022-08-03T04:10:53.488Z,45238.38
2022-08-03T04:13:21.888Z,45248.34
2022-08-03T04:15:50.409Z,45254.34
2022-08-03T04:18:19.025Z,45236.38
2022-08-03T04:20:48.705Z,45238.38
2022-08-03T04:23:16.844Z,45238.38
2022-08-03T04:25:44.308Z,45238.38
2022-08-03T04:28:30.945Z,45238.38
2022-08-03T04:31:01.027Z,45246.34
2022-08-03T04:33:29.669Z,45248.34
2022-08-03T04:36:01.957Z,45236.38
2022-08-03T04:38:36.655Z,45230.38
2022-08-03T04:41:03.646Z,45242.34
2022-08-03T04:43:33.563Z,45250.34
2022-08-03T04:46:01.574Z,45244.34
2022-08-03T04:48:28.500Z,45236.38
2022-08-03T04:50:55.058Z,45238.38
2022-08-03T04:53:21.743Z,45242.34
2022-08-03T04:55:48.156Z,45250.34
2022-08-03T04:58:14.625Z,45214.38
2022-08-03T05:00:41.068Z,45226.38
2022-08-03T05:03:20.274Z,45230.38
2022-08-03T05:05:52.448Z,45246.34
2022-08-03T05:08:20.649Z,45234.38
2022-08-03T05:10:54.526Z,45244.34
2022-08-03T05:13:21.117Z,45238.38
2022-08-03T05:15:47.559Z,45236.38
2022-08-03T05:18:14.522Z,45216.38
2022-08-03T05:20:41.528Z,45222.38
2022-08-03T05:23:08.007Z,45226.38
2022-08-03T05:25:34.457Z,45222.38
2022-08-03T05:28:01.271Z,45226.38
2022-08-03T05:30:33.331Z,45224.38
2022-08-03T05:33:02.455Z,45228.38
2022-08-03T05:36:01.981Z,45238.38
2022-08-03T05:38:24.040Z,45234.38
2022-08-03T05:41:20.392Z,45214.38
2022-08-03T05:43:46.055Z,45222.38
2022-08-03T05:46:12.936Z,45212.38
2022-08-03T05:48:40.137Z,45220.38
2022-08-03T05:51:07.726Z,45214.38
2022-08-03T05:53:34.498Z,45214.38
2022-08-03T05:56:02.733Z,45210.38
2022-08-03T05:58:39.935Z,45214.38
2022-08-03T06:01:06.403Z,45214.38
2022-08-03T06:03:32.843Z,45218.38
2022-08-03T06:06:00.331Z,45218.38
2022-08-03T06:08:27.092Z,45210.38
2022-08-03T06:10:53.513Z,45202.38
2022-08-03T06:13:19.964Z,45208.38
2022-08-03T06:15:46.463Z,45214.38
2022-08-03T06:18:12.923Z,45208.38
2022-08-03T06:20:39.370Z,45214.38
2022-08-03T06:23:06.403Z,45216.38
2022-08-03T06:25:34.073Z,45194.41
2022-08-03T06:28:00.598Z,45202.38
2022-08-03T06:30:27.262Z,45210.38
2022-08-03T06:32:53.715Z,45190.41
2022-08-03T06:35:20.389Z,45202.38
2022-08-03T06:37:49.582Z,45206.38
2022-08-03T06:40:21.826Z,45202.38
2022-08-03T06:42:50.937Z,45186.41
2022-08-03T06:45:18.009Z,45186.41
2022-08-03T06:47:44.500Z,45182.41
2022-08-03T06:50:16.399Z,45200.41
2022-08-03T06:52:43.852Z,45182.41
2022-08-03T06:55:10.272Z,45176.41
2022-08-03T06:57:36.763Z,45186.41
2022-08-03T07:00:08.706Z,45180.41
2022-08-03T07:02:39.767Z,45188.41
2022-08-03T07:05:07.646Z,45194.41
2022-08-03T07:07:34.310Z,45192.41
2022-08-03T07:10:02.155Z,45178.41
2022-08-03T07:12:30.439Z,45178.41
2022-08-03T07:15:01.275Z,45176.41
2022-08-03T07:17:34.483Z,45194.41
2022-08-03T07:20:03.923Z,45186.41
2022-08-03T07:22:30.365Z,45182.41
2022-08-03T07:24:56.786Z,45178.41
2022-08-03T07:27:23.272Z,45182.41
2022-08-03T07:29:49.755Z,45164.44
2022-08-03T07:32:16.398Z,45184.41
2022-08-03T07:34:42.976Z,45184.41
2022-08-03T07:37:09.410Z,45182.41
2022-08-03T07:39:35.854Z,45170.41
2022-08-03T07:42:02.492Z,45162.44
2022-08-03T07:44:28.961Z,45174.41
2022-08-03T07:46:55.405Z,45170.41
2022-08-03T07:49:23.301Z,45162.44
2022-08-03T07:52:09.750Z,45166.44
2022-08-03T07:54:36.310Z,45164.44
2022-08-03T07:57:02.836Z,45162.44
2022-08-03T07:59:29.249Z,45154.44
2022-08-03T08:02:15.856Z,45146.44
2022-08-03T08:04:42.436Z,45164.44
2022-08-03T08:07:09.263Z,45158.44
2022-08-03T08:09:35.962Z,45156.44
2022-08-03T08:12:02.456Z,45156.44
2022-08-03T08:14:29.600Z,45156.44
2022-08-03T08:16:56.125Z,45162.44
2022-08-03T08:19:22.532Z,45162.44
2022-08-03T08:21:53.181Z,45154.44
2022-08-03T08:24:30.320Z,45154.44
2022-08-03T08:26:57.759Z,45150.44
2022-08-03T08:29:24.250Z,45136.44
2022-08-03T08:31:50.700Z,45170.41
2022-08-03T08:34:17.209Z,45158.44
2022-08-03T08:36:43.844Z,45158.44
2022-08-03T08:39:10.356Z,45144.44
2022-08-03T08:41:36.805Z,45150.44
2022-08-03T08:44:03.725Z,45130.44
2022-08-03T08:46:34.050Z,45134.44
2022-08-03T08:49:04.723Z,45136.44
2022-08-03T08:51:54.685Z,45154.44
2022-08-03T08:54:25.462Z,45142.44
2022-08-03T08:56:53.406Z,45138.44
2022-08-03T08:59:20.686Z,45132.44
2022-08-03T09:01:47.184Z,45146.44
2022-08-03T09:04:13.750Z,45134.44
2022-08-03T09:06:40.162Z,45130.44
2022-08-03T09:09:07.152Z,45118.47
2022-08-03T09:11:52.364Z,45142.44
2022-08-03T09:14:34.382Z,45122.47
2022-08-03T09:17:04.421Z,45114.47
2022-08-03T09:19:33.301Z,45136.44
2022-08-03T09:22:14.149Z,45126.47
2022-08-03T09:25:21.607Z,45134.44
2022-08-03T09:27:45.943Z,45122.47
2022-08-03T09:30:33.837Z,45130.44
2022-08-03T09:33:09.689Z,45110.47
2022-08-03T09:35:53.666Z,45118.47
2022-08-03T09:38:27.225Z,45120.47
2022-08-03T09:40:59.482Z,45124.47
2022-08-03T09:43:27.797Z,45124.47
2022-08-03T09:46:07.202Z,45122.47
2022-08-03T09:48:35.406Z,45110.47
2022-08-03T09:51:14.425Z,45124.47
2022-08-03T09:53:59.772Z,45110.47
2022-08-03T09:56:39.674Z,45120.47
2022-08-03T09:59:06.231Z,45118.47
2022-08-03T10:01:34.804Z,45124.47
2022-08-03T10:04:03.803Z,45114.47
2022-08-03T10:06:31.449Z,45122.47
2022-08-03T10:09:08.550Z,45110.47
2022-08-03T10:11:40.745Z,45108.47
2022-08-03T10:14:09.323Z,45116.47
2022-08-03T10:16:39.766Z,45108.47
2022-08-03T10:19:09.118Z,45110.47
2022-08-03T10:21:38.257Z,45098.47
2022-08-03T10:24:10.564Z,45106.47
2022-08-03T10:26:39.967Z,45102.47
2022-08-03T10:29:24.323Z,45108.47
2022-08-03T10:31:58.111Z,45112.47
2022-08-03T10:34:27.710Z,45106.47
2022-08-03T10:36:58.659Z,45098.47
2022-08-03T10:39:29.125Z,45102.47
2022-08-03T10:41:58.680Z,45092.50
2022-08-03T10:44:33.094Z,45106.47
2022-08-03T10:46:59.708Z,45100.47
2022-08-03T10:49:34.989Z,45110.47
2022-08-03T10:52:10.465Z,45098.47
2022-08-03T10:55:03.215Z,45098.47
2022-08-03T10:57:43.502Z,45086.50
2022-08-03T11:00:14.075Z,45082.50
2022-08-03T11:03:09.615Z,45096.47
2022-08-03T11:05:38.962Z,45092.50
2022-08-03T11:08:23.956Z,45086.50
2022-08-03T11:10:56.284Z,45090.50
2022-08-03T11:13:25.496Z,45070.50
2022-08-03T11:15:54.217Z,45088.50
2022-08-03T11:18:28.513Z,45076.50
2022-08-03T11:21:00.186Z,45070.50
2022-08-03T11:24:04.682Z,45086.50
2022-08-03T11:26:33.479Z,45078.50
2022-08-03T11:29:28.899Z,45054.53
2022-08-03T11:31:55.323Z,45054.53
2022-08-03T11:34:24.273Z,45058.53
2022-08-03T11:37:21.341Z,45046.53
2022-08-03T11:39:51.591Z,45046.53
2022-08-03T11:42:24.054Z,45026.53
2022-08-03T11:44:51.481Z,45008.56
2022-08-03T11:47:18.578Z,45008.56
2022-08-03T11:49:49.429Z,45002.56
2022-08-03T11:52:19.519Z,44990.59
2022-08-03T11:54:56.719Z,44994.56
2022-08-03T11:59:16.990Z,44986.59
2022-08-03T12:00:29.658Z,44984.59
2022-08-03T12:02:57.768Z,44972.59
2022-08-03T12:05:51.428Z,44966.59
2022-08-03T12:08:27.960Z,44962.59
2022-08-03T12:10:56.771Z,44954.63
2022-08-03T12:14:35.647Z,44946.63
2022-08-03T12:16:11.042Z,44946.63
2022-08-03T12:18:37.605Z,44952.63
2022-08-03T12:21:11.720Z,44946.63
2022-08-03T12:23:39.049Z,44934.63
2022-08-03T12:26:08.849Z,44938.63
2022-08-03T12:28:38.429Z,44938.63
2022-08-03T12:31:07.380Z,44938.63
2022-08-03T12:34:04.894Z,44928.63
2022-08-03T12:36:36.303Z,44926.63
2022-08-03T12:39:05.682Z,44924.63
2022-08-03T12:41:35.159Z,44934.63
2022-08-03T12:44:06.353Z,44918.66
2022-08-03T12:46:38.277Z,44918.66
2022-08-03T12:49:07.605Z,44918.66
2022-08-03T12:51:44.609Z,44906.66
2022-08-03T12:54:24.750Z,44914.66
2022-08-03T12:57:00.765Z,44902.66
2022-08-03T12:59:35.441Z,44898.66
2022-08-03T13:02:17.781Z,44892.66
2022-08-03T13:04:45.748Z,44900.66
2022-08-03T13:07:14.507Z,44884.69
2022-08-03T13:09:43.395Z,44890.66
2022-08-03T13:12:12.717Z,44888.69
2022-08-03T13:14:39.678Z,44882.69
2022-08-03T13:17:07.101Z,44878.69
2022-08-03T13:19:34.712Z,44894.66
2022-08-03T13:22:03.963Z,44886.69
2022-08-03T13:24:32.354Z,44880.69
2022-08-03T13:26:59.639Z,44882.69
2022-08-03T13:29:26.087Z,44884.69
2022-08-03T13:31:52.570Z,44888.69
2022-08-03T13:34:23.168Z,44888.69
2022-08-03T13:39:57.183Z,44898.66
2022-08-03T13:42:25.425Z,44912.66
2022-08-03T13:44:51.888Z,44918.66
2022-08-03T13:47:19.236Z,44910.66
2022-08-03T13:50:00.515Z,44906.66
2022-08-03T13:52:37.815Z,44906.66
2022-08-03T13:55:06.824Z,44908.66
2022-08-03T13:58:03.131Z,44924.63
2022-08-03T14:00:28.169Z,44902.66
2022-08-03T14:03:02.991Z,44902.66
2022-08-03T14:05:32.189Z,44902.66
2022-08-03T14:08:03.965Z,44898.66
2022-08-03T14:10:30.856Z,44898.66
2022-08-03T14:13:00.173Z,44902.66
2022-08-03T14:15:28.360Z,44904.66
2022-08-03T14:17:55.069Z,44906.66
2022-08-03T14:20:36.741Z,44912.66
2022-08-03T14:23:06.692Z,44906.66
2022-08-03T14:25:49.851Z,44914.66
2022-08-03T14:28:18.518Z,44908.66
2022-08-03T14:30:45.110Z,44906.66
2022-08-03T14:33:11.573Z,44910.66
2022-08-03T14:35:38.020Z,44914.66
2022-08-03T14:38:04.444Z,44906.66
2022-08-03T14:40:30.856Z,44906.66
2022-08-03T14:42:57.267Z,44890.66
2022-08-03T14:45:23.690Z,44906.66
2022-08-03T14:50:28.636Z,44898.66
2022-08-03T14:50:42.898Z,44894.66
2022-08-03T14:53:10.874Z,44886.69
2022-08-03T14:55:38.992Z,44882.69
2022-08-03T14:58:20.012Z,44890.66
2022-08-03T15:00:49.132Z,44886.69
2022-08-03T15:03:16.733Z,44886.69
2022-08-03T15:05:43.987Z,44878.69
2022-08-03T15:08:10.399Z,44882.69
2022-08-03T15:10:44.644Z,44894.66
2022-08-03T15:13:14.911Z,44900.66
2022-08-03T15:15:41.672Z,44894.66
2022-08-03T15:18:08.798Z,44906.66
2022-08-03T15:20:50.792Z,44910.66
2022-08-03T15:23:18.523Z,44906.66
2022-08-03T15:26:28.508Z,44916.66
2022-08-03T15:28:32.803Z,44926.63
2022-08-03T15:30:59.829Z,44930.63
2022-08-03T15:33:26.309Z,44934.63
2022-08-03T15:35:53.220Z,44934.63
2022-08-03T15:38:22.776Z,44938.63
2022-08-03T15:40:54.403Z,44926.63
2022-08-03T15:43:24.561Z,44938.63
2022-08-03T15:46:12.766Z,44946.63
2022-08-03T15:48:37.886Z,44936.63
2022-08-03T15:51:05.375Z,44946.63
2022-08-03T15:53:33.487Z,44952.63
2022-08-03T15:56:00.802Z,44946.63
2022-08-03T15:59:09.396Z,44956.63
2022-08-03T16:01:19.789Z,44962.59
2022-08-03T16:03:46.783Z,44954.63
2022-08-03T16:06:13.858Z,44970.59
2022-08-03T16:08:40.333Z,44968.59
2022-08-03T16:11:06.809Z,44970.59
2022-08-03T16:14:05.537Z,44972.59
2022-08-03T16:16:19.892Z,44986.59
2022-08-03T16:18:46.343Z,44990.59
2022-08-03T16:21:14.815Z,44994.56
2022-08-03T16:23:47.272Z,44978.59
2022-08-03T16:26:14.054Z,44982.59
2022-08-03T16:28:40.594Z,44980.59
2022-08-03T16:31:08.325Z,44994.56
2022-08-03T16:33:35.057Z,44998.56
2022-08-03T16:36:01.731Z,44988.59
2022-08-03T16:38:28.221Z,44990.59
2022-08-03T16:40:54.632Z,44990.59
2022-08-03T16:43:22.412Z,44988.59
2022-08-03T16:45:49.390Z,44998.56
2022-08-03T16:48:17.000Z,44996.56
2022-08-03T16:50:44.447Z,44998.56
2022-08-03T16:53:16.257Z,45006.56
2022-08-03T16:55:53.365Z,45004.56
2022-08-03T16:58:41.725Z,45002.56
2022-08-03T17:01:21.862Z,45002.56
2022-08-03T17:04:04.758Z,45002.56
2022-08-03T17:06:37.239Z,45014.56
2022-08-03T17:09:10.057Z,45014.56
2022-08-03T17:11:47.315Z,45022.56
2022-08-03T17:14:21.943Z,45030.53
2022-08-03T17:16:52.617Z,45022.56
2022-08-03T17:19:23.261Z,45010.56
2022-08-03T17:21:56.810Z,45016.56
2022-08-03T17:24:41.122Z,45030.53
2022-08-03T17:27:18.553Z,45010.56
2022-08-03T17:30:09.668Z,45022.56
2022-08-03T17:32:42.205Z,45030.53
2022-08-03T17:35:10.445Z,45032.53
2022-08-03T17:37:58.016Z,45016.56
2022-08-03T17:40:24.276Z,45018.56
2022-08-03T17:42:52.222Z,45030.53
2022-08-03T17:45:19.679Z,45032.53
2022-08-03T17:47:57.644Z,45026.53
2022-08-03T17:50:32.501Z,45022.56
2022-08-03T17:53:15.458Z,45032.53
2022-08-03T17:56:04.404Z,45034.53
2022-08-03T17:58:41.394Z,45032.53
2022-08-03T18:02:00.601Z,45026.53
2022-08-03T18:04:30.139Z,45026.53
2022-08-03T18:06:59.649Z,45036.53
2022-08-03T18:10:05.101Z,45032.53
2022-08-03T18:12:26.124Z,45010.56
2022-08-03T18:15:01.217Z,45026.53
2022-08-03T18:17:55.603Z,45034.53
2022-08-03T18:20:34.401Z,45042.53
2022-08-03T18:23:08.831Z,45032.53
2022-08-03T18:25:45.543Z,45034.53
2022-08-03T18:28:16.491Z,45030.53
2022-08-03T18:30:53.295Z,45034.53
2022-08-03T18:34:16.449Z,45032.53
2022-08-03T18:39:01.768Z,45032.53
2022-08-03T18:41:33.370Z,45028.53
2022-08-03T18:44:06.812Z,45022.56
2022-08-03T18:50:19.100Z,45034.53
2022-08-03T18:53:19.339Z,45038.53
2022-08-03T18:56:01.376Z,45038.53
2022-08-03T18:58:39.951Z,45030.53
2022-08-03T19:02:01.011Z,45036.53
2022-08-03T19:04:14.271Z,45046.53
2022-08-03T19:06:45.485Z,45048.53
2022-08-03T19:09:20.433Z,45038.53
2022-08-03T19:12:14.185Z,45038.53
2022-08-03T19:14:53.292Z,45038.53
2022-08-03T19:17:22.031Z,45050.53
2022-08-03T19:19:57.795Z,45040.53
2022-08-03T19:22:27.151Z,45050.53
2022-08-03T19:24:55.222Z,45038.53
2022-08-03T19:27:27.036Z,45046.53
2022-08-03T19:29:59.560Z,45062.50
2022-08-03T19:32:30.199Z,45036.53
2022-08-03T19:34:59.561Z,45046.53
2022-08-03T19:37:38.135Z,45042.53
2022-08-03T19:40:10.283Z,45042.53
2022-08-03T19:42:43.325Z,45046.53
2022-08-03T19:45:14.514Z,45054.53
2022-08-03T19:47:58.533Z,45052.53
2022-08-03T19:50:25.487Z,45054.53
2022-08-03T19:52:52.836Z,45050.53
2022-08-03T19:55:19.913Z,45046.53
2022-08-03T19:57:49.286Z,45046.53
2022-08-03T20:00:19.700Z,45062.50
2022-08-03T20:02:46.623Z,45064.50
2022-08-03T20:05:15.331Z,45062.50
2022-08-03T20:07:47.891Z,45046.53
2022-08-03T20:10:16.668Z,45068.50
2022-08-03T20:12:44.742Z,45064.50
2022-08-03T20:15:11.938Z,45066.50
2022-08-03T20:17:57.086Z,45050.53
2022-08-03T20:20:29.465Z,45062.50
2022-08-03T20:22:58.147Z,45062.50
2022-08-03T20:25:38.174Z,45060.50
2022-08-03T20:28:16.846Z,45050.53
2022-08-03T20:33:46.326Z,45066.50
2022-08-03T20:36:18.079Z,45090.50
2022-08-03T20:38:47.696Z,45062.50
2022-08-03T20:41:16.280Z,45074.50
2022-08-03T20:43:43.121Z,45072.50
2022-08-03T20:46:32.077Z,45070.50
2022-08-03T20:48:58.917Z,45062.50
2022-08-03T20:51:49.141Z,45082.50
2022-08-03T20:54:28.770Z,45066.50
2022-08-03T20:59:50.063Z,45076.50
2022-08-03T21:02:30.174Z,45074.50
2022-08-03T21:05:03.416Z,45086.50
2022-08-03T21:07:45.906Z,45094.50
2022-08-03T21:10:30.280Z,45080.50
2022-08-03T21:12:58.649Z,45016.56
2022-08-03T21:13:00.462Z,45034.53
2022-08-03T21:13:07.090Z,45066.50
2022-08-03T21:13:07.725Z,45076.50
2022-08-03T21:13:24.857Z,45082.50
2022-08-03T21:16:04.098Z,45074.50
2022-08-03T21:19:05.759Z,45074.50
2022-08-03T21:21:32.749Z,45096.47
2022-08-03T21:24:00.559Z,45084.50
2022-08-03T21:26:28.177Z,45078.50
2022-08-03T21:28:56.570Z,45082.50
2022-08-03T21:31:26.808Z,45092.50
2022-08-03T21:34:11.780Z,45094.50
2022-08-03T21:36:38.341Z,45098.47
2022-08-03T21:39:08.375Z,45102.47
2022-08-03T21:41:36.482Z,45086.50
2022-08-03T21:44:04.537Z,45094.50
2022-08-03T21:46:42.694Z,45096.47
2022-08-03T21:49:51.994Z,45110.47
2022-08-03T21:52:03.555Z,45090.50
2022-08-03T21:54:43.474Z,45092.50
2022-08-03T21:57:17.945Z,45090.50
2022-08-03T21:59:52.346Z,45094.50
2022-08-03T22:02:24.367Z,45094.50
2022-08-03T22:04:56.309Z,45102.47
2022-08-03T22:07:28.890Z,45110.47
2022-08-03T22:09:56.719Z,45104.47
2022-08-03T22:12:25.314Z,45106.47
2022-08-03T22:15:00.525Z,45106.47
2022-08-03T22:17:53.994Z,45094.50
2022-08-03T22:20:20.178Z,45098.47
2022-08-03T22:22:55.441Z,45112.47
2022-08-03T22:25:27.327Z,45098.47
2022-08-03T22:27:54.768Z,45094.50
2022-08-03T22:30:21.237Z,45106.47
2022-08-03T22:32:51.797Z,45102.47
2022-08-03T22:35:21.263Z,45110.47
2022-08-03T22:37:53.592Z,45110.47
2022-08-03T22:40:20.127Z,45106.47
2022-08-03T22:42:49.334Z,45106.47
2022-08-03T22:46:06.014Z,45106.47
2022-08-03T22:48:07.697Z,45120.47
2022-08-03T22:50:34.880Z,45110.47
2022-08-03T22:53:01.360Z,45104.47
2022-08-03T22:55:27.857Z,45114.47
2022-08-03T22:57:56.002Z,45106.47
2022-08-03T23:00:24.381Z,45126.47
2022-08-03T23:02:53.417Z,45114.47
2022-08-03T23:06:00.303Z,45118.47
2022-08-03T23:08:22.598Z,45108.47
2022-08-03T23:10:50.943Z,45122.47
2022-08-03T23:13:18.335Z,45118.47
2022-08-03T23:15:55.079Z,45098.47
2022-08-03T23:18:22.825Z,45104.47
2022-08-03T23:20:51.872Z,45118.47
2022-08-03T23:23:19.797Z,45106.47
2022-08-03T23:25:49.452Z,45118.47
2022-08-03T23:28:18.570Z,45118.47
2022-08-03T23:30:45.455Z,45106.47
2022-08-03T23:33:16.230Z,45130.44
2022-08-03T23:36:28.061Z,45114.47
2022-08-03T23:38:48.356Z,45126.47
2022-08-03T23:41:15.582Z,45110.47
2022-08-03T23:43:51.398Z,45124.47
2022-08-03T23:46:20.996Z,45122.47
2022-08-03T23:48:47.471Z,45128.47
2022-08-03T23:51:36.542Z,45136.44
2022-08-03T23:54:33.900Z,45122.47
2022-08-03T23:57:19.341Z,45112.47
